This is the latest recevied weather packets stored in our database for station/object W4OTS. If no packets are shown the sender has not sent any weather packets the latest 10 day(s).
| Time | Temp. | Humidity | Pressure | Rain* | Wind** | Luminosity | Snow |
|---|---|---|---|---|---|---|---|
| 1778104768 | 22.22° C | 87% | 1014.3 hPa | 0 mm | - | 32 W/m² | - |
| 1778104464 | 22.22° C | 86% | 1014.3 hPa | 0 mm | - | 42 W/m² | - |
| 1778104160 | 22.22° C | 86% | 1014.4 hPa | 0 mm | - | 51 W/m² | - |
| 1778103857 | 22.22° C | 87% | 1014.5 hPa | 0 mm | - | 66 W/m² | - |
| 1778103555 | 21.67° C | 87% | 1014.3 hPa | 0 mm | - | 91 W/m² | - |
| 1778103253 | 21.67° C | 88% | 1014.3 hPa | 0 mm | - | 95 W/m² | - |
| 1778102950 | 21.67° C | 88% | 1014.2 hPa | 0 mm | - | 90 W/m² | - |
| 1778102645 | 21.67° C | 88% | 1013.8 hPa | 0 mm | - | 95 W/m² | - |
| 1778102340 | 21.67° C | 88% | 1013.9 hPa | 0 mm | - | 101 W/m² | - |
| 1778102037 | 21.67° C | 87% | 1014 hPa | 0 mm | - | 104 W/m² | - |
| 1778101734 | 21.67° C | 87% | 1014 hPa | 0 mm | - | 110 W/m² | - |
| 1778101431 | 21.67° C | 88% | 1014 hPa | 0 mm | - | 122 W/m² | - |
| 1778101128 | 21.67° C | 87% | 1014 hPa | 0 mm | - | 121 W/m² | - |
| 1778100824 | 21.67° C | 87% | 1014.2 hPa | 0 mm | - | 108 W/m² | - |
| 1778100520 | 21.67° C | 87% | 1014.2 hPa | 0 mm | - | 95 W/m² | - |
| 1778100218 | 21.67° C | 88% | 1014.2 hPa | 0 mm | - | 121 W/m² | - |
| 1778099916 | 21.67° C | 86% | 1014.1 hPa | 0 mm | - | 129 W/m² | - |
| 1778099613 | 21.67° C | 86% | 1014.3 hPa | 0 mm | - | 150 W/m² | - |
| 1778099309 | 21.67° C | 86% | 1014.2 hPa | 0 mm | - | 132 W/m² | - |
| 1778099007 | 21.67° C | 86% | 1014.6 hPa | 0 mm | - | 155 W/m² | - |
| 1778098703 | 21.67° C | 86% | 1014.6 hPa | 0 mm | - | 143 W/m² | - |
| 1778098401 | 21.67° C | 86% | 1015 hPa | 0 mm | - | 187 W/m² | - |
| 1778098097 | 21.67° C | 86% | 1014.5 hPa | 0 mm | - | 161 W/m² | - |
| 1778097793 | 21.67° C | 86% | 1014.9 hPa | 0 mm | - | 164 W/m² | - |
| 1778097489 | 21.67° C | 87% | 1014.7 hPa | 0 mm | - | 150 W/m² | - |
* Rain latest hour (hover to see other rain measurements)
** Current wind speed in m/s (hover to see current wind gust speed)